createdAt,value
2022-09-22T00:01:08.083Z,5.70
2022-09-22T00:02:05.121Z,5.43
2022-09-22T00:03:02.207Z,6.83
2022-09-22T00:04:04.082Z,6.40
2022-09-22T00:05:01.394Z,5.93
2022-09-22T00:06:00.668Z,4.70
2022-09-22T00:06:57.961Z,5.53
2022-09-22T00:07:55.015Z,7.50
2022-09-22T00:08:56.489Z,5.83
2022-09-22T00:09:53.757Z,6.30
2022-09-22T00:10:59.975Z,6.17
2022-09-22T00:11:57.011Z,7.33
2022-09-22T00:12:54.873Z,7.23
2022-09-22T00:13:53.632Z,6.70
2022-09-22T00:14:51.220Z,7.67
2022-09-22T00:15:48.318Z,9.70
2022-09-22T00:16:47.574Z,8.13
2022-09-22T00:17:44.750Z,6.90
2022-09-22T00:18:41.735Z,6.40
2022-09-22T00:19:39.482Z,8.00
2022-09-22T00:20:39.340Z,6.80
2022-09-22T00:21:36.700Z,6.53
2022-09-22T00:22:33.727Z,6.80
2022-09-22T00:23:31.981Z,8.20
2022-09-22T00:24:28.935Z,9.80
2022-09-22T00:25:26.516Z,8.07
2022-09-22T00:26:24.118Z,6.73
2022-09-22T00:27:21.004Z,7.77
2022-09-22T00:28:18.300Z,7.07
2022-09-22T00:29:15.842Z,10.03
2022-09-22T00:30:13.589Z,8.73
2022-09-22T00:31:18.084Z,6.67
2022-09-22T00:32:15.113Z,7.93
2022-09-22T00:33:12.104Z,5.73
2022-09-22T00:34:11.680Z,5.20
2022-09-22T00:35:08.963Z,5.77
2022-09-22T00:36:06.065Z,5.90
2022-09-22T00:37:03.116Z,7.10
2022-09-22T00:38:02.984Z,6.00
2022-09-22T00:39:00.295Z,6.73
2022-09-22T00:39:57.528Z,5.87
2022-09-22T00:40:54.742Z,6.37
2022-09-22T00:41:52.409Z,5.83
2022-09-22T00:42:49.773Z,7.87
2022-09-22T00:43:51.497Z,6.57
2022-09-22T00:44:54.514Z,7.47
2022-09-22T00:46:19.404Z,6.45
2022-09-22T00:47:19.162Z,7.20
2022-09-22T00:48:16.436Z,7.90
2022-09-22T00:49:13.324Z,7.47
2022-09-22T00:50:16.611Z,6.37
2022-09-22T00:51:14.457Z,7.53
2022-09-22T00:52:11.840Z,8.00
2022-09-22T00:53:13.860Z,8.40
2022-09-22T00:54:13.627Z,8.37
2022-09-22T00:55:21.174Z,8.37
2022-09-22T00:56:22.721Z,8.30
2022-09-22T00:57:22.401Z,10.73
2022-09-22T00:58:21.093Z,7.33
2022-09-22T00:59:19.167Z,6.20
2022-09-22T01:00:16.174Z,6.03
2022-09-22T01:01:15.263Z,5.93
2022-09-22T01:02:12.387Z,5.47
2022-09-22T01:03:13.005Z,5.50
2022-09-22T01:04:10.255Z,4.83
2022-09-22T01:05:08.101Z,7.53
2022-09-22T01:06:06.469Z,5.87
2022-09-22T01:07:03.731Z,5.10
2022-09-22T01:08:01.472Z,5.27
2022-09-22T01:08:58.495Z,4.80
2022-09-22T01:09:56.276Z,5.37
2022-09-22T01:10:53.918Z,4.97
2022-09-22T01:11:51.116Z,5.27
2022-09-22T01:13:02.026Z,4.50
2022-09-22T01:14:07.664Z,4.87
2022-09-22T01:15:13.592Z,5.80
2022-09-22T01:16:25.316Z,4.30
2022-09-22T01:17:41.104Z,8.17
2022-09-22T01:19:00.616Z,4.40
2022-09-22T01:20:10.796Z,4.80
2022-09-22T01:21:19.909Z,5.00
2022-09-22T01:22:29.429Z,5.53
2022-09-22T01:23:50.715Z,5.30
2022-09-22T01:24:59.447Z,4.70
2022-09-22T01:26:19.054Z,6.47
2022-09-22T01:27:24.180Z,5.18
2022-09-22T01:28:32.209Z,4.80
2022-09-22T01:30:07.562Z,5.72
2022-09-22T01:31:07.631Z,4.40
2022-09-22T01:32:31.950Z,5.00
2022-09-22T01:33:42.437Z,5.67
2022-09-22T01:34:49.662Z,6.60
2022-09-22T01:35:58.999Z,7.40
2022-09-22T01:37:17.736Z,6.87
2022-09-22T01:38:24.920Z,6.57
2022-09-22T01:39:23.387Z,7.27
2022-09-22T01:40:35.787Z,5.33
2022-09-22T01:41:55.263Z,7.10
2022-09-22T01:42:55.085Z,8.13
2022-09-22T01:43:57.160Z,5.40
2022-09-22T01:45:32.534Z,6.93
2022-09-22T01:46:34.447Z,6.27
2022-09-22T01:47:41.559Z,6.57
2022-09-22T01:48:40.347Z,6.43
2022-09-22T01:49:39.445Z,6.47
2022-09-22T01:50:40.148Z,6.93
2022-09-22T01:51:37.082Z,5.70
2022-09-22T01:52:34.634Z,8.90
2022-09-22T01:53:34.365Z,5.17
2022-09-22T01:54:41.209Z,5.50
2022-09-22T01:55:39.792Z,6.03
2022-09-22T01:56:40.193Z,6.47
2022-09-22T01:57:48.587Z,7.70
2022-09-22T01:58:47.542Z,6.60
2022-09-22T01:59:46.161Z,6.87
2022-09-22T02:00:50.177Z,8.33
2022-09-22T02:03:57.730Z,5.27
2022-09-22T02:04:56.816Z,5.40
2022-09-22T02:05:59.863Z,5.40
2022-09-22T02:07:08.326Z,7.13
2022-09-22T02:08:10.052Z,5.73
2022-09-22T02:09:09.567Z,5.37
2022-09-22T02:10:09.183Z,5.60
2022-09-22T02:11:13.967Z,4.93
2022-09-22T02:12:10.851Z,5.90
2022-09-22T02:13:07.874Z,7.30
2022-09-22T02:14:04.792Z,11.40
2022-09-22T02:15:02.104Z,6.63
2022-09-22T02:16:02.203Z,7.73
2022-09-22T02:16:59.916Z,5.60
2022-09-22T02:17:59.151Z,10.23
2022-09-22T02:19:16.481Z,7.55
2022-09-22T02:20:13.520Z,7.10
2022-09-22T02:21:10.905Z,8.83
2022-09-22T02:22:08.582Z,10.03
2022-09-22T02:23:05.543Z,7.90
2022-09-22T02:24:02.736Z,8.35
2022-09-22T02:24:59.773Z,9.18
2022-09-22T02:25:56.993Z,9.63
2022-09-22T02:26:54.130Z,8.43
2022-09-22T02:27:52.238Z,6.57
2022-09-22T02:28:49.272Z,9.77
2022-09-22T02:29:49.339Z,6.03
2022-09-22T02:30:59.093Z,7.07
2022-09-22T02:32:06.444Z,5.63
2022-09-22T02:33:03.300Z,7.23
2022-09-22T02:34:00.528Z,5.33
2022-09-22T02:34:57.566Z,4.83
2022-09-22T02:36:32.958Z,4.10
2022-09-22T02:37:55.808Z,5.50
2022-09-22T02:39:03.447Z,5.57
2022-09-22T02:40:18.259Z,5.20
2022-09-22T02:42:02.890Z,4.50
2022-09-22T02:43:12.875Z,4.93
2022-09-22T02:44:24.359Z,4.10
2022-09-22T02:45:31.022Z,4.23
2022-09-22T02:46:32.364Z,5.60
2022-09-22T02:47:32.583Z,4.70
2022-09-22T02:48:32.082Z,4.50
2022-09-22T02:49:28.830Z,6.17
2022-09-22T02:50:26.705Z,5.33
2022-09-22T02:51:23.537Z,5.47
2022-09-22T02:52:21.475Z,5.90
2022-09-22T02:53:19.002Z,3.33
2022-09-22T02:54:16.243Z,3.70
2022-09-22T02:55:16.843Z,3.30
2022-09-22T02:56:14.166Z,3.50
2022-09-22T02:57:11.518Z,3.03
2022-09-22T02:59:34.639Z,6.13
2022-09-22T03:00:33.136Z,5.23
2022-09-22T03:01:30.163Z,3.70
2022-09-22T03:02:27.448Z,4.97
2022-09-22T03:03:24.636Z,3.20
2022-09-22T03:04:21.672Z,3.40
2022-09-22T03:05:18.627Z,5.93
2022-09-22T03:06:18.524Z,3.67
2022-09-22T03:07:15.423Z,3.80
2022-09-22T03:08:12.402Z,4.00
2022-09-22T03:09:09.362Z,5.20
2022-09-22T03:10:07.091Z,4.33
2022-09-22T03:11:04.053Z,3.13
2022-09-22T03:12:01.233Z,3.77
2022-09-22T03:13:15.549Z,4.30
2022-09-22T03:14:13.252Z,3.53
2022-09-22T03:15:11.189Z,4.20
2022-09-22T03:16:08.453Z,3.50
2022-09-22T03:17:05.522Z,4.43
2022-09-22T03:18:02.410Z,3.10
2022-09-22T03:18:59.697Z,3.00
2022-09-22T03:19:56.774Z,5.57
2022-09-22T03:20:53.768Z,3.60
2022-09-22T03:21:50.963Z,2.57
2022-09-22T03:22:48.148Z,2.87
2022-09-22T03:23:45.040Z,2.60
2022-09-22T03:24:42.010Z,3.17
2022-09-22T03:25:39.148Z,2.13
2022-09-22T03:26:36.194Z,2.27
2022-09-22T03:27:33.600Z,4.70
2022-09-22T03:28:30.966Z,3.07
2022-09-22T03:29:27.910Z,2.97
2022-09-22T03:30:24.842Z,2.33
2022-09-22T03:31:21.772Z,2.23
2022-09-22T03:32:18.823Z,3.23
2022-09-22T03:33:15.867Z,2.00
2022-09-22T03:34:12.752Z,2.67
2022-09-22T03:35:10.076Z,3.97
2022-09-22T03:36:07.263Z,5.23
2022-09-22T03:37:06.578Z,3.33
2022-09-22T03:38:03.423Z,3.37
2022-09-22T03:39:00.448Z,3.80
2022-09-22T03:39:57.523Z,2.13
2022-09-22T03:40:54.480Z,3.27
2022-09-22T03:41:51.684Z,2.90
2022-09-22T03:42:48.690Z,2.73
2022-09-22T03:43:45.886Z,3.35
2022-09-22T03:44:43.141Z,3.20
2022-09-22T03:45:40.230Z,3.57
2022-09-22T03:46:37.384Z,2.40
2022-09-22T03:47:36.947Z,3.90
2022-09-22T03:48:33.998Z,2.80
2022-09-22T03:49:31.487Z,4.80
2022-09-22T03:50:28.574Z,3.50
2022-09-22T03:51:25.554Z,2.60
2022-09-22T03:52:22.904Z,2.37
2022-09-22T03:53:19.892Z,3.13
2022-09-22T03:54:19.893Z,3.37
2022-09-22T03:55:16.839Z,2.60
2022-09-22T03:56:17.615Z,3.00
2022-09-22T03:57:14.692Z,1.63
2022-09-22T03:58:14.022Z,2.27
2022-09-22T03:59:11.595Z,3.73
2022-09-22T04:00:09.148Z,4.67
2022-09-22T04:01:06.229Z,3.27
2022-09-22T04:02:04.725Z,3.53
2022-09-22T04:03:01.830Z,2.43
2022-09-22T04:03:58.794Z,2.00
2022-09-22T04:04:55.794Z,2.63
2022-09-22T04:05:53.072Z,2.17
2022-09-22T04:06:50.531Z,3.40
2022-09-22T04:07:47.564Z,2.53
2022-09-22T04:08:44.602Z,3.70
2022-09-22T04:09:42.171Z,3.20
2022-09-22T04:10:39.079Z,2.63
2022-09-22T04:11:36.652Z,3.73
2022-09-22T04:12:33.606Z,2.83
2022-09-22T04:13:30.543Z,3.60
2022-09-22T04:14:27.518Z,4.20
2022-09-22T04:15:24.370Z,2.93
2022-09-22T04:16:21.464Z,1.97
2022-09-22T04:17:20.701Z,3.33
2022-09-22T04:18:17.673Z,4.20
2022-09-22T04:19:15.641Z,1.87
2022-09-22T04:20:12.532Z,2.57
2022-09-22T04:21:09.777Z,2.60
2022-09-22T04:22:06.732Z,2.40
2022-09-22T04:23:03.641Z,3.30
2022-09-22T04:24:00.973Z,3.40
2022-09-22T04:24:57.911Z,3.13
2022-09-22T04:25:55.134Z,3.63
2022-09-22T04:27:18.030Z,2.00
2022-09-22T04:28:09.635Z,3.23
2022-09-22T04:29:06.591Z,3.43
2022-09-22T04:30:05.967Z,3.03
2022-09-22T04:31:02.981Z,2.43
2022-09-22T04:32:00.003Z,3.97
2022-09-22T04:32:56.875Z,3.93
2022-09-22T04:33:53.931Z,3.33
2022-09-22T04:34:51.147Z,3.37
2022-09-22T04:35:49.823Z,2.57
2022-09-22T04:36:46.802Z,3.27
2022-09-22T04:37:43.689Z,5.43
2022-09-22T04:38:40.809Z,3.97
2022-09-22T04:39:38.021Z,3.10
2022-09-22T04:40:37.982Z,3.20
2022-09-22T04:41:35.024Z,3.33
2022-09-22T04:42:31.903Z,3.47
2022-09-22T04:43:28.924Z,4.40
2022-09-22T04:44:25.828Z,4.07
2022-09-22T04:45:23.040Z,4.80
2022-09-22T04:46:20.098Z,4.80
2022-09-22T04:47:20.056Z,4.13
2022-09-22T04:48:17.078Z,3.33
2022-09-22T04:49:14.301Z,3.70
2022-09-22T04:50:11.275Z,6.97
2022-09-22T04:51:08.630Z,4.00
2022-09-22T04:52:05.682Z,3.87
2022-09-22T04:53:02.717Z,4.17
2022-09-22T04:53:59.592Z,4.50
2022-09-22T04:54:56.550Z,5.03
2022-09-22T04:55:53.630Z,4.73
2022-09-22T04:56:51.986Z,4.17
2022-09-22T04:57:53.153Z,4.63
2022-09-22T04:58:50.136Z,5.97
2022-09-22T04:59:53.763Z,4.40
2022-09-22T05:00:50.941Z,7.47
2022-09-22T05:01:47.992Z,5.67
2022-09-22T05:02:45.096Z,5.83
2022-09-22T05:03:41.967Z,5.30
2022-09-22T05:04:38.948Z,5.87
2022-09-22T05:05:36.173Z,8.52
2022-09-22T05:06:33.019Z,6.03
2022-09-22T05:07:30.040Z,7.95
2022-09-22T05:08:26.993Z,4.87
2022-09-22T05:09:24.085Z,5.05
2022-09-22T05:10:27.424Z,6.13
2022-09-22T05:11:24.357Z,6.25
2022-09-22T05:12:21.382Z,6.65
2022-09-22T05:13:18.384Z,5.13
2022-09-22T05:14:15.847Z,6.13
2022-09-22T05:15:14.227Z,8.07
2022-09-22T05:16:11.148Z,5.23
2022-09-22T05:17:08.260Z,5.65
2022-09-22T05:18:05.668Z,5.63
2022-09-22T05:19:02.674Z,4.32
2022-09-22T05:20:01.771Z,5.72
2022-09-22T05:20:59.739Z,5.45
2022-09-22T05:21:56.655Z,5.63
2022-09-22T05:22:56.553Z,7.72
2022-09-22T05:23:55.364Z,8.82
2022-09-22T05:24:52.270Z,6.47
2022-09-22T05:25:49.271Z,7.30
2022-09-22T05:26:46.382Z,5.53
2022-09-22T05:27:50.634Z,5.55
2022-09-22T05:28:47.605Z,5.65
2022-09-22T05:29:44.541Z,6.95
2022-09-22T05:30:43.625Z,4.32
2022-09-22T05:31:40.502Z,5.80
2022-09-22T05:32:37.517Z,5.60
2022-09-22T05:33:34.420Z,5.13
2022-09-22T05:34:31.270Z,5.28
2022-09-22T05:35:30.781Z,4.47
2022-09-22T05:36:32.887Z,4.45
2022-09-22T05:37:29.860Z,5.82
2022-09-22T05:38:26.766Z,4.57
2022-09-22T05:39:23.795Z,3.97
2022-09-22T05:40:20.843Z,6.72
2022-09-22T05:41:17.824Z,5.45
2022-09-22T05:42:14.725Z,5.90
2022-09-22T05:43:11.633Z,6.22
2022-09-22T05:44:08.652Z,4.10
2022-09-22T05:45:06.103Z,7.15
2022-09-22T05:46:03.148Z,6.47
2022-09-22T05:47:01.353Z,9.23
2022-09-22T05:47:58.368Z,3.85
2022-09-22T05:48:55.318Z,4.55
2022-09-22T05:49:52.202Z,4.72
2022-09-22T05:50:49.046Z,7.78
2022-09-22T05:51:46.841Z,4.20
2022-09-22T05:55:08.119Z,5.05
2022-09-22T05:56:12.798Z,4.70
2022-09-22T05:57:09.769Z,5.70
2022-09-22T05:58:06.810Z,6.00
2022-09-22T05:59:03.732Z,5.95
2022-09-22T06:00:00.612Z,4.78
2022-09-22T06:00:58.548Z,4.40
2022-09-22T06:01:59.533Z,6.25
2022-09-22T06:02:57.321Z,4.85
2022-09-22T06:03:54.454Z,4.53
2022-09-22T06:04:54.105Z,5.60
2022-09-22T06:05:55.384Z,5.20
2022-09-22T06:06:52.482Z,6.07
2022-09-22T06:07:56.681Z,5.88
2022-09-22T06:08:53.667Z,7.00
2022-09-22T06:09:50.670Z,6.47
2022-09-22T06:10:51.153Z,4.50
2022-09-22T06:11:51.088Z,6.80
2022-09-22T06:12:48.554Z,4.72
2022-09-22T06:13:46.092Z,4.57
2022-09-22T06:14:43.583Z,6.90
2022-09-22T06:15:42.258Z,4.70
2022-09-22T06:16:39.187Z,5.32
2022-09-22T06:17:36.126Z,5.22
2022-09-22T06:18:34.230Z,4.20
2022-09-22T06:20:36.477Z,3.85
2022-09-22T06:21:41.177Z,3.58
2022-09-22T06:22:47.484Z,5.40
2022-09-22T06:23:44.456Z,3.63
2022-09-22T06:24:42.153Z,6.17
2022-09-22T06:25:39.111Z,3.50
2022-09-22T06:26:35.972Z,4.38
2022-09-22T06:27:33.255Z,5.43
2022-09-22T06:28:33.447Z,4.60
2022-09-22T06:29:34.985Z,3.80
2022-09-22T06:30:37.439Z,6.67
2022-09-22T06:31:40.330Z,5.80
2022-09-22T06:32:39.473Z,4.00
2022-09-22T06:33:37.957Z,5.60
2022-09-22T06:34:37.681Z,5.90
2022-09-22T06:35:57.196Z,3.40
2022-09-22T06:37:09.156Z,4.33
2022-09-22T06:38:06.477Z,5.57
2022-09-22T06:39:06.711Z,6.77
2022-09-22T06:40:04.178Z,4.17
2022-09-22T06:41:03.123Z,6.23
2022-09-22T06:42:01.347Z,4.00
2022-09-22T06:43:07.726Z,4.37
2022-09-22T06:44:05.779Z,3.53
2022-09-22T06:45:04.747Z,4.87
2022-09-22T06:46:04.165Z,4.97
2022-09-22T06:47:05.566Z,3.27
2022-09-22T06:48:07.564Z,4.67
2022-09-22T06:49:06.902Z,4.13
2022-09-22T06:50:05.777Z,3.30
2022-09-22T06:51:03.790Z,5.30
2022-09-22T06:52:00.803Z,3.50
2022-09-22T06:53:01.387Z,4.93
2022-09-22T06:53:58.897Z,3.30
2022-09-22T06:54:58.909Z,5.37
2022-09-22T06:55:55.839Z,4.77
2022-09-22T07:20:54.434Z,3.50
2022-09-22T07:21:51.604Z,3.57
2022-09-22T07:23:01.050Z,3.43
2022-09-22T07:23:58.171Z,3.73
2022-09-22T07:24:56.862Z,4.03
2022-09-22T07:26:02.187Z,5.40
2022-09-22T07:27:04.958Z,3.50
2022-09-22T07:28:07.845Z,4.43
2022-09-22T08:05:46.405Z,2.83
2022-09-22T08:07:53.099Z,3.50
2022-09-22T08:13:37.549Z,1.50
2022-09-22T08:15:51.715Z,1.73
2022-09-22T08:16:56.070Z,1.63
2022-09-22T08:23:05.852Z,2.17
2022-09-22T08:45:24.820Z,1.50
2022-09-22T08:46:28.896Z,2.90
2022-09-22T08:47:49.513Z,1.83
2022-09-22T08:49:05.026Z,1.63
2022-09-22T08:50:20.730Z,1.63
2022-09-22T08:51:43.079Z,2.10
2022-09-22T08:52:50.912Z,1.90
2022-09-22T08:53:48.772Z,1.73
2022-09-22T08:54:46.206Z,3.30
2022-09-22T08:55:44.537Z,1.67
2022-09-22T08:56:46.668Z,2.30
2022-09-22T08:57:49.524Z,2.03
2022-09-22T08:59:14.026Z,2.67
2022-09-22T09:00:20.327Z,2.27
2022-09-22T09:01:30.554Z,2.70
2022-09-22T09:02:46.321Z,3.77
2022-09-22T09:04:00.505Z,2.00
2022-09-22T09:05:23.130Z,2.17
2022-09-22T09:06:44.395Z,1.67
2022-09-22T09:08:00.239Z,2.30
2022-09-22T09:09:27.607Z,1.30
2022-09-22T09:10:36.588Z,2.10
2022-09-22T09:12:00.066Z,1.57
2022-09-22T09:13:22.708Z,2.20
2022-09-22T09:14:41.401Z,1.77
2022-09-22T09:16:09.231Z,1.77
2022-09-22T09:17:19.695Z,1.90
2022-09-22T09:18:21.042Z,3.03
2022-09-22T09:19:20.414Z,1.67
2022-09-22T09:20:28.397Z,1.70
2022-09-22T09:21:25.345Z,2.17
2022-09-22T09:22:27.300Z,1.87
2022-09-22T09:25:21.955Z,1.97
2022-09-22T09:26:13.760Z,1.47
2022-09-22T09:27:14.633Z,2.03
2022-09-22T09:28:45.948Z,1.90
2022-09-22T09:30:05.958Z,1.63
2022-09-22T09:31:08.773Z,2.53
2022-09-22T09:32:08.441Z,2.93
2022-09-22T09:33:11.668Z,2.50
2022-09-22T09:34:12.321Z,1.37
2022-09-22T09:35:32.410Z,1.13
2022-09-22T09:36:31.388Z,1.73
2022-09-22T09:37:28.750Z,1.93
2022-09-22T09:38:27.426Z,1.20
2022-09-22T09:39:30.205Z,1.60
2022-09-22T09:40:28.103Z,1.20
2022-09-22T09:41:31.707Z,2.47
2022-09-22T09:42:31.492Z,1.30
2022-09-22T09:43:28.740Z,1.63
2022-09-22T09:44:29.566Z,1.53
2022-09-22T09:45:29.569Z,1.30
2022-09-22T09:46:49.149Z,1.40
2022-09-22T09:48:29.180Z,1.03
2022-09-22T09:49:26.205Z,1.23
2022-09-22T09:50:25.487Z,1.73
2022-09-22T09:51:26.135Z,1.50
2022-09-22T09:52:25.991Z,2.27
2022-09-22T09:53:29.620Z,0.93
2022-09-22T09:54:27.659Z,1.13
2022-09-22T09:55:27.824Z,1.37
2022-09-22T09:56:26.612Z,3.20
2022-09-22T09:57:27.895Z,1.27
2022-09-22T09:58:43.287Z,1.27
2022-09-22T10:00:00.060Z,1.23
2022-09-22T10:00:58.039Z,1.13
2022-09-22T10:01:55.135Z,1.10
2022-09-22T10:03:03.384Z,1.30
2022-09-22T10:04:00.528Z,1.50
2022-09-22T10:05:00.100Z,1.90
2022-09-22T10:06:09.146Z,2.07
2022-09-22T10:07:18.050Z,1.33
2022-09-22T10:08:21.671Z,1.20
2022-09-22T10:09:32.860Z,2.97
2022-09-22T10:10:29.658Z,2.57
2022-09-22T10:11:31.336Z,2.03
2022-09-22T10:12:34.501Z,0.90
2022-09-22T10:13:33.608Z,1.43
2022-09-22T10:14:32.933Z,1.10
2022-09-22T10:15:30.130Z,1.20
2022-09-22T10:16:28.814Z,1.40
2022-09-22T10:17:49.458Z,1.27
2022-09-22T10:19:20.116Z,1.37
2022-09-22T10:20:31.516Z,1.40
2022-09-22T10:21:29.421Z,1.53
2022-09-22T10:22:28.603Z,0.90
2022-09-22T10:23:27.559Z,0.97
2022-09-22T10:24:38.261Z,1.43
2022-09-22T10:25:34.961Z,1.20
2022-09-22T10:26:32.765Z,1.13
2022-09-22T10:27:32.971Z,2.50
2022-09-22T10:28:29.884Z,1.43
2022-09-22T10:29:32.238Z,1.50
2022-09-22T10:30:37.120Z,1.73
2022-09-22T10:31:35.615Z,1.23
2022-09-22T10:32:32.403Z,1.23
2022-09-22T10:33:29.384Z,1.73
2022-09-22T10:34:47.462Z,1.23
2022-09-22T10:36:07.850Z,0.93
2022-09-22T10:37:13.477Z,0.90
2022-09-22T10:38:23.804Z,1.13
2022-09-22T10:39:20.575Z,1.47
2022-09-22T10:40:17.469Z,1.37
2022-09-22T10:41:19.331Z,0.90
2022-09-22T10:42:37.131Z,0.93
2022-09-22T10:43:48.918Z,1.47
2022-09-22T10:44:49.133Z,1.50
2022-09-22T10:46:17.197Z,1.17
2022-09-22T10:47:27.290Z,2.03
2022-09-22T10:48:34.062Z,1.20
2022-09-22T10:49:51.100Z,1.57
2022-09-22T10:50:58.180Z,2.05
2022-09-22T10:52:15.927Z,0.97
2022-09-22T10:53:49.708Z,0.83
2022-09-22T10:54:58.851Z,0.88
2022-09-22T10:56:22.435Z,1.43
2022-09-22T10:57:39.138Z,2.00
2022-09-22T10:58:54.459Z,2.10
2022-09-22T10:59:57.424Z,6.25
2022-09-22T11:01:01.223Z,6.90
2022-09-22T11:02:16.765Z,2.10
2022-09-22T11:03:22.525Z,1.42
2022-09-22T11:04:27.459Z,1.27
2022-09-22T11:06:02.190Z,1.30
2022-09-22T11:07:37.309Z,1.70
2022-09-22T11:09:28.769Z,2.03
2022-09-22T11:11:11.852Z,0.90
2022-09-22T11:12:25.517Z,1.13
2022-09-22T11:13:50.692Z,1.20
2022-09-22T11:15:15.152Z,2.42
2022-09-22T11:16:23.885Z,1.30
2022-09-22T11:17:23.559Z,1.10
2022-09-22T11:18:50.283Z,0.65
2022-09-22T11:20:28.328Z,1.02
2022-09-22T11:21:31.420Z,1.15
2022-09-22T11:22:30.941Z,1.10
2022-09-22T11:23:46.041Z,1.67
2022-09-22T11:25:06.692Z,2.63
2022-09-22T11:26:22.302Z,1.33
2022-09-22T11:27:34.360Z,1.10
2022-09-22T11:28:46.263Z,1.67
2022-09-22T11:29:55.264Z,1.35
2022-09-22T11:30:52.691Z,1.10
2022-09-22T11:31:54.349Z,0.93
2022-09-22T11:33:10.142Z,0.80
2022-09-22T11:34:31.090Z,1.00
2022-09-22T11:35:46.090Z,0.82
2022-09-22T11:36:55.942Z,1.23
2022-09-22T11:38:13.346Z,1.40
2022-09-22T11:39:26.769Z,2.15
2022-09-22T11:40:36.687Z,1.60
2022-09-22T11:41:46.251Z,1.23
2022-09-22T11:42:49.932Z,1.63
2022-09-22T11:44:08.133Z,1.52
2022-09-22T11:45:19.260Z,1.95
2022-09-22T11:46:25.474Z,1.52
2022-09-22T11:47:28.561Z,1.10
2022-09-22T11:48:25.333Z,1.75
2022-09-22T11:49:24.790Z,1.38
2022-09-22T11:50:45.622Z,1.60
2022-09-22T11:52:17.296Z,2.38
2022-09-22T11:53:30.269Z,1.10
2022-09-22T11:54:47.472Z,1.00
2022-09-22T11:55:57.246Z,1.20
2022-09-22T11:56:59.442Z,1.20
2022-09-22T11:58:00.944Z,1.42
2022-09-22T11:58:59.199Z,1.30
2022-09-22T11:59:59.617Z,1.00
2022-09-22T12:01:07.498Z,1.20
2022-09-22T12:02:31.394Z,1.20
2022-09-22T12:03:33.083Z,2.15
2022-09-22T12:04:40.205Z,2.00
2022-09-22T12:05:58.747Z,1.60
2022-09-22T12:06:57.717Z,1.52
2022-09-22T12:08:02.191Z,1.50
2022-09-22T12:09:04.639Z,1.83
2022-09-22T12:10:03.836Z,1.30
2022-09-22T12:11:00.833Z,1.95
2022-09-22T12:11:57.754Z,1.50
2022-09-22T12:12:56.818Z,1.60
2022-09-22T12:13:53.898Z,1.45
2022-09-22T12:14:59.852Z,1.50
2022-09-22T12:15:59.202Z,1.48
2022-09-22T12:17:06.013Z,1.65
2022-09-22T12:18:36.535Z,1.30
2022-09-22T12:20:05.604Z,1.48
2022-09-22T12:21:19.812Z,1.38
2022-09-22T12:22:19.183Z,1.47
2022-09-22T12:23:15.972Z,1.40
2022-09-22T12:24:13.029Z,1.27
2022-09-22T12:25:21.187Z,1.10
2022-09-22T12:26:33.793Z,1.10
2022-09-22T12:27:30.641Z,1.52
2022-09-22T12:28:28.614Z,1.15
2022-09-22T12:29:27.925Z,1.42
2022-09-22T12:30:24.818Z,1.27
2022-09-22T12:31:22.189Z,1.30
2022-09-22T12:32:39.478Z,1.40
2022-09-22T12:33:36.925Z,1.40
2022-09-22T12:34:40.205Z,1.52
2022-09-22T12:35:37.195Z,1.35
2022-09-22T12:36:40.099Z,1.23
2022-09-22T12:37:38.706Z,1.23
2022-09-22T12:38:35.565Z,1.52
2022-09-22T12:39:32.327Z,1.52
2022-09-22T12:40:30.898Z,2.30
2022-09-22T12:41:27.853Z,1.75
2022-09-22T12:42:37.148Z,1.52
2022-09-22T12:43:37.737Z,1.65
2022-09-22T12:44:38.345Z,1.70
2022-09-22T12:45:36.299Z,1.40
2022-09-22T12:46:33.079Z,1.50
2022-09-22T12:47:40.872Z,1.08
2022-09-22T12:48:37.740Z,1.20
2022-09-22T12:49:34.551Z,1.17
2022-09-22T12:50:41.000Z,1.05
2022-09-22T12:51:37.724Z,1.55
2022-09-22T12:53:02.681Z,1.35
2022-09-22T12:54:28.809Z,1.33
2022-09-22T12:55:28.247Z,2.17
2022-09-22T12:56:45.595Z,1.42
2022-09-22T12:58:01.482Z,1.50
2022-09-22T12:58:58.441Z,2.35
2022-09-22T12:59:57.938Z,1.70
2022-09-22T13:00:56.452Z,1.35
2022-09-22T13:02:17.574Z,1.08
2022-09-22T13:03:26.766Z,1.42
2022-09-22T13:04:23.791Z,1.30
2022-09-22T13:05:26.498Z,2.33
2022-09-22T13:06:23.521Z,1.67
2022-09-22T13:07:36.949Z,1.70
2022-09-22T13:08:33.525Z,1.15
2022-09-22T13:09:30.621Z,4.07
2022-09-22T13:10:27.455Z,1.00
2022-09-22T13:12:01.361Z,1.63
2022-09-22T13:13:06.849Z,1.35
2022-09-22T13:14:03.851Z,1.92
2022-09-22T13:15:06.504Z,1.58
2022-09-22T13:16:25.776Z,1.30
2022-09-22T13:17:45.738Z,1.45
2022-09-22T13:18:45.800Z,1.30
2022-09-22T13:19:55.171Z,1.40
2022-09-22T13:20:51.937Z,2.08
2022-09-22T13:21:48.803Z,1.92
2022-09-22T13:22:45.670Z,2.28
2022-09-22T13:23:51.090Z,1.20
2022-09-22T13:24:48.103Z,1.30
2022-09-22T13:25:44.838Z,1.30
2022-09-22T13:26:41.941Z,1.70
2022-09-22T13:27:38.825Z,1.42
2022-09-22T13:28:37.614Z,1.48
2022-09-22T13:29:34.544Z,1.30
2022-09-22T13:30:32.450Z,1.20
2022-09-22T13:31:54.386Z,1.48
2022-09-22T13:32:51.295Z,1.10
2022-09-22T13:33:48.088Z,1.58
2022-09-22T13:34:45.219Z,1.30
2022-09-22T13:35:42.328Z,1.35
2022-09-22T13:36:38.991Z,1.30
2022-09-22T13:37:36.205Z,1.15
2022-09-22T13:38:36.255Z,1.20
2022-09-22T13:39:35.041Z,1.40
2022-09-22T13:40:35.001Z,1.30
2022-09-22T13:41:34.004Z,1.33
2022-09-22T13:42:33.457Z,1.48
2022-09-22T13:43:34.483Z,1.33
2022-09-22T13:44:31.906Z,1.65
2022-09-22T13:45:30.292Z,1.27
2022-09-22T13:46:41.156Z,1.27
2022-09-22T13:47:39.633Z,1.30
2022-09-22T13:48:36.989Z,1.63
2022-09-22T13:49:43.758Z,1.90
2022-09-22T13:50:53.030Z,1.80
2022-09-22T13:51:55.155Z,2.40
2022-09-22T13:52:52.079Z,1.33
2022-09-22T13:53:56.582Z,1.30
2022-09-22T13:55:00.637Z,1.10
2022-09-22T13:55:57.890Z,1.90
2022-09-22T13:56:58.035Z,1.23
2022-09-22T13:57:56.368Z,2.65
2022-09-22T13:59:03.959Z,1.40
2022-09-22T14:00:03.869Z,2.80
2022-09-22T14:01:13.170Z,2.45
2022-09-22T14:02:14.125Z,2.08
2022-09-22T14:03:11.619Z,3.10
2022-09-22T14:04:24.717Z,2.30
2022-09-22T14:05:24.123Z,1.40
2022-09-22T14:06:25.955Z,1.40
2022-09-22T14:07:23.030Z,1.20
2022-09-22T14:08:29.852Z,1.83
2022-09-22T14:09:26.737Z,3.45
2022-09-22T14:10:23.606Z,1.17
2022-09-22T14:11:30.990Z,1.13
2022-09-22T14:12:28.853Z,2.15
2022-09-22T14:13:41.867Z,1.35
2022-09-22T14:14:40.101Z,1.10
2022-09-22T14:15:43.655Z,1.30
2022-09-22T14:17:14.063Z,1.00
2022-09-22T14:18:16.819Z,1.17
2022-09-22T14:19:37.005Z,1.45
2022-09-22T14:20:35.656Z,1.73
2022-09-22T14:21:33.308Z,1.05
2022-09-22T14:22:33.919Z,1.40
2022-09-22T14:23:33.412Z,1.50
2022-09-22T14:24:31.766Z,1.42
2022-09-22T14:25:32.481Z,1.00
2022-09-22T14:26:37.724Z,2.25
2022-09-22T14:27:36.444Z,1.83
2022-09-22T14:28:37.225Z,1.30
2022-09-22T14:29:40.396Z,1.50
2022-09-22T14:30:38.285Z,1.42
2022-09-22T14:31:35.308Z,1.40
2022-09-22T14:32:35.262Z,1.45
2022-09-22T14:33:33.425Z,1.30
2022-09-22T14:34:31.664Z,1.88
2022-09-22T14:35:38.694Z,5.20
2022-09-22T14:36:37.072Z,2.30
2022-09-22T14:37:39.244Z,1.70
2022-09-22T14:38:43.048Z,3.20
2022-09-22T14:39:43.050Z,1.48
2022-09-22T14:40:40.298Z,1.30
2022-09-22T14:41:37.361Z,1.13
2022-09-22T14:42:34.542Z,1.17
2022-09-22T14:43:42.198Z,1.27
2022-09-22T14:44:49.783Z,1.50
2022-09-22T14:46:00.702Z,3.00
2022-09-22T14:46:57.602Z,1.40
2022-09-22T14:48:14.120Z,1.80
2022-09-22T14:49:36.573Z,2.00
2022-09-22T14:50:41.563Z,1.08
2022-09-22T14:51:38.382Z,1.10
2022-09-22T14:52:37.887Z,1.30
2022-09-22T14:53:41.800Z,1.17
2022-09-22T14:54:40.561Z,1.20
2022-09-22T14:55:39.136Z,2.83
2022-09-22T14:56:36.744Z,1.40
2022-09-22T14:57:33.599Z,1.65
2022-09-22T14:58:40.490Z,1.20
2022-09-22T14:59:56.447Z,2.35
2022-09-22T15:01:18.237Z,1.63
2022-09-22T15:02:33.675Z,1.20
2022-09-22T15:03:30.571Z,1.10
2022-09-22T15:04:28.536Z,1.20
2022-09-22T15:05:30.509Z,1.30
2022-09-22T15:06:39.643Z,1.35
2022-09-22T15:07:37.718Z,2.78
2022-09-22T15:08:34.458Z,2.15
2022-09-22T15:09:32.598Z,1.85
2022-09-22T15:10:31.279Z,1.08
2022-09-22T15:11:48.367Z,1.30
2022-09-22T15:12:49.332Z,2.50
2022-09-22T15:13:47.738Z,1.38
2022-09-22T15:14:44.893Z,1.27
2022-09-22T15:15:46.117Z,1.30
2022-09-22T15:16:43.604Z,2.00
2022-09-22T15:17:59.881Z,1.65
2022-09-22T15:18:57.061Z,1.77
2022-09-22T15:19:58.556Z,1.63
2022-09-22T15:20:57.324Z,1.35
2022-09-22T15:21:54.899Z,2.28
2022-09-22T15:22:53.986Z,1.25
2022-09-22T15:23:50.992Z,1.75
2022-09-22T15:24:51.605Z,1.15
2022-09-22T15:25:49.097Z,1.75
2022-09-22T15:26:47.244Z,1.35
2022-09-22T15:27:44.305Z,2.75
2022-09-22T15:28:41.177Z,1.48
2022-09-22T15:29:38.177Z,2.15
2022-09-22T15:30:34.950Z,2.10
2022-09-22T15:31:32.465Z,2.05
2022-09-22T15:32:29.303Z,2.28
2022-09-22T15:33:26.056Z,1.67
2022-09-22T15:34:22.957Z,2.45
2022-09-22T15:35:20.431Z,1.17
2022-09-22T15:36:18.993Z,1.52
2022-09-22T15:37:21.012Z,1.63